createdAt,value
2023-01-17T00:02:49.724Z,97920.72
2023-01-17T00:06:11.768Z,97916.00
2023-01-17T00:09:34.016Z,97908.56
2023-01-17T00:12:37.150Z,97919.16
2023-01-17T00:15:40.236Z,97923.47
2023-01-17T00:19:03.237Z,97918.00
2023-01-17T00:22:38.804Z,97914.47
2023-01-17T00:26:00.651Z,97916.44
2023-01-17T00:29:03.366Z,97925.47
2023-01-17T00:32:06.384Z,97932.12
2023-01-17T00:35:09.099Z,97925.09
2023-01-17T00:38:15.095Z,97912.53
2023-01-17T00:41:18.271Z,97923.91
2023-01-17T00:44:39.925Z,97921.16
2023-01-17T00:48:04.772Z,97917.22
2023-01-17T00:51:26.764Z,97909.00
2023-01-17T00:54:47.942Z,97915.66
2023-01-17T00:58:09.595Z,97921.16
2023-01-17T01:01:31.018Z,97927.41
2023-01-17T01:04:52.644Z,97930.56
2023-01-17T01:08:14.284Z,97927.41
2023-01-17T01:11:39.543Z,97928.59
2023-01-17T01:15:00.814Z,97926.66
2023-01-17T01:18:30.332Z,97931.75
2023-01-17T01:21:51.843Z,97930.16
2023-01-17T01:25:13.741Z,97936.84
2023-01-17T01:28:34.817Z,97946.25
2023-01-17T01:31:56.506Z,97947.00
2023-01-17T01:34:59.194Z,97950.91
2023-01-17T01:38:03.201Z,97938.38
2023-01-17T01:41:06.248Z,97951.66
2023-01-17T01:44:46.744Z,97944.59
2023-01-17T01:47:51.706Z,97934.00
2023-01-17T01:50:55.336Z,97934.38
2023-01-17T01:54:04.939Z,97917.16
2023-01-17T01:57:11.463Z,97910.88
2023-01-17T02:00:20.133Z,97903.03
2023-01-17T02:03:30.061Z,97897.97
2023-01-17T02:06:39.965Z,97906.19
2023-01-17T02:09:43.203Z,97917.19
2023-01-17T02:12:46.968Z,97920.31
2023-01-17T02:16:19.171Z,97919.94
2023-01-17T02:19:43.208Z,97923.47
2023-01-17T02:22:58.318Z,97925.78
2023-01-17T02:26:19.564Z,97923.47
2023-01-17T02:30:10.319Z,97912.13
2023-01-17T02:33:54.664Z,97911.72
2023-01-17T02:37:08.028Z,97913.28
2023-01-17T02:40:16.995Z,97915.63
2023-01-17T02:43:22.040Z,97912.87
2023-01-17T02:46:24.801Z,97910.56
2023-01-17T02:49:32.112Z,97911.75
2023-01-17T02:52:49.765Z,97898.03
2023-01-17T02:56:04.934Z,97904.31
2023-01-17T02:59:48.338Z,97878.00
2023-01-17T03:03:20.045Z,97871.38
2023-01-17T03:06:45.179Z,97862.34
2023-01-17T03:09:53.789Z,97855.28
2023-01-17T03:13:01.009Z,97844.69
2023-01-17T03:16:07.291Z,97841.19
2023-01-17T03:19:10.185Z,97847.41
2023-01-17T03:22:13.365Z,97842.31
2023-01-17T03:25:17.345Z,97835.25
2023-01-17T03:28:20.435Z,97821.50
2023-01-17T03:31:23.162Z,97814.09
2023-01-17T03:34:26.262Z,97819.94
2023-01-17T03:37:29.008Z,97823.47
2023-01-17T03:40:32.099Z,97821.09
2023-01-17T03:43:34.915Z,97812.87
2023-01-17T03:46:37.976Z,97811.28
2023-01-17T03:49:40.846Z,97802.28
2023-01-17T03:52:43.921Z,97808.53
2023-01-17T03:55:47.258Z,97805.03
2023-01-17T03:58:51.704Z,97809.75
2023-01-17T04:01:54.539Z,97809.75
2023-01-17T04:04:57.591Z,97799.94
2023-01-17T04:08:00.328Z,97805.06
2023-01-17T04:11:03.335Z,97798.75
2023-01-17T04:14:06.108Z,97794.06
2023-01-17T04:17:18.750Z,97804.25
2023-01-17T04:20:34.453Z,97803.50
2023-01-17T04:23:37.564Z,97804.28
2023-01-17T04:26:40.236Z,97803.09
2023-01-17T04:29:45.309Z,97805.84
2023-01-17T04:32:49.727Z,97808.19
2023-01-17T04:35:54.057Z,97806.63
2023-01-17T04:38:57.004Z,97803.88
2023-01-17T04:42:00.235Z,97814.47
2023-01-17T04:45:04.059Z,97825.47
2023-01-17T04:48:07.610Z,97831.72
2023-01-17T04:51:10.743Z,97825.06
2023-01-17T04:54:13.843Z,97816.44
2023-01-17T04:57:17.921Z,97814.84
2023-01-17T05:00:23.902Z,97816.44
2023-01-17T05:03:27.177Z,97823.91
2023-01-17T05:06:30.305Z,97835.66
2023-01-17T05:09:33.288Z,97849.78
2023-01-17T05:12:37.447Z,97861.56
2023-01-17T05:15:40.447Z,97856.06
2023-01-17T05:18:43.516Z,97865.09
2023-01-17T05:21:46.209Z,97859.97
2023-01-17T05:24:49.341Z,97865.84
2023-01-17T05:27:52.240Z,97873.69
2023-01-17T05:30:55.486Z,97885.84
2023-01-17T05:33:58.132Z,97892.09
2023-01-17T05:37:01.177Z,97883.50
2023-01-17T05:40:06.377Z,97890.91
2023-01-17T05:43:09.465Z,97892.91
2023-01-17T05:46:12.599Z,97911.69
2023-01-17T05:49:15.662Z,97912.06
2023-01-17T05:52:18.412Z,97924.22
2023-01-17T05:55:22.432Z,97931.97
2023-01-17T05:58:25.152Z,97946.38
2023-01-17T06:01:28.533Z,97951.78
2023-01-17T06:04:31.744Z,97959.09
2023-01-17T06:07:34.825Z,97976.19
2023-01-17T06:10:37.894Z,97976.81
2023-01-17T06:13:40.577Z,97984.22
2023-01-17T06:16:43.995Z,97980.72
2023-01-17T06:19:46.862Z,97988.56
2023-01-17T06:22:50.129Z,97995.94
2023-01-17T06:25:53.015Z,98008.06
2023-01-17T06:28:55.951Z,98022.91
2023-01-17T06:32:01.528Z,98026.37
2023-01-17T06:35:05.048Z,98041.66
2023-01-17T06:38:10.151Z,98043.16
2023-01-17T06:41:13.124Z,98044.34
2023-01-17T06:44:15.945Z,98048.63
2023-01-17T06:47:18.923Z,98051.69
2023-01-17T06:50:22.330Z,98051.72
2023-01-17T06:53:25.455Z,98059.91
2023-01-17T06:56:32.017Z,98062.72
2023-01-17T06:59:35.150Z,98068.53
2023-01-17T07:02:37.913Z,98063.81
2023-01-17T07:05:41.799Z,98066.56
2023-01-17T07:08:44.779Z,98077.03
2023-01-17T07:11:47.890Z,98082.84
2023-01-17T07:14:50.608Z,98085.44
2023-01-17T07:17:53.603Z,98088.50
2023-01-17T07:20:56.450Z,98102.19
2023-01-17T07:23:59.490Z,98106.13
2023-01-17T07:27:02.297Z,98117.06
2023-01-17T07:30:06.366Z,98130.41
2023-01-17T07:33:09.838Z,98128.09
2023-01-17T07:36:12.928Z,98128.63
2023-01-17T07:39:16.461Z,98117.34
2023-01-17T07:42:19.612Z,98116.09
2023-01-17T07:45:22.303Z,98112.19
2023-01-17T07:48:25.406Z,98108.19
2023-01-17T07:51:28.699Z,98103.47
2023-01-17T07:54:31.899Z,98088.31
2023-01-17T07:57:34.772Z,98091.06
2023-01-17T08:00:37.994Z,98079.06
2023-01-17T08:03:41.615Z,98090.22
2023-01-17T08:06:47.849Z,98100.59
2023-01-17T08:09:50.975Z,98121.53
2023-01-17T08:12:53.843Z,98127.16
2023-01-17T08:15:57.231Z,98132.13
2023-01-17T08:18:59.922Z,98136.88
2023-01-17T08:22:03.031Z,98148.59
2023-01-17T08:25:06.443Z,98155.72
2023-01-17T08:28:09.940Z,98152.72
2023-01-17T08:31:12.709Z,98154.50
2023-01-17T08:34:16.309Z,98155.50
2023-01-17T08:37:19.037Z,98151.84
2023-01-17T08:40:23.243Z,98147.75
2023-01-17T08:43:26.013Z,98143.94
2023-01-17T08:46:30.918Z,98132.91
2023-01-17T08:49:34.928Z,98139.44
2023-01-17T08:52:38.534Z,98137.09
2023-01-17T08:55:41.352Z,98155.72
2023-01-17T08:58:44.755Z,98168.81
2023-01-17T09:01:47.641Z,98179.41
2023-01-17T09:04:51.692Z,98178.97
2023-01-17T09:07:56.769Z,98176.22
2023-01-17T09:11:04.176Z,98172.03
2023-01-17T09:14:07.242Z,98178.06
2023-01-17T09:17:10.630Z,98190.41
2023-01-17T09:20:14.191Z,98199.66
2023-01-17T09:23:17.249Z,98201.63
2023-01-17T09:26:23.981Z,98206.22
2023-01-17T09:29:27.625Z,98212.97
2023-01-17T09:32:30.446Z,98223.59
2023-01-17T09:35:34.595Z,98234.66
2023-01-17T09:38:38.153Z,98245.69
2023-01-17T09:42:00.049Z,98255.19
2023-01-17T09:45:03.188Z,98243.47
2023-01-17T09:48:10.409Z,98252.88
2023-01-17T09:51:21.449Z,98252.25
2023-01-17T09:54:29.992Z,98247.78
2023-01-17T09:58:14.303Z,98250.06
2023-01-17T10:01:37.711Z,98250.63
2023-01-17T10:05:08.649Z,98253.44
2023-01-17T10:08:20.447Z,98255.84
2023-01-17T10:11:41.951Z,98248.00
2023-01-17T10:15:15.223Z,98234.81
2023-01-17T10:18:29.909Z,98242.41
2023-01-17T10:21:59.399Z,98237.91
2023-01-17T10:25:23.394Z,98232.06
2023-01-17T10:28:41.709Z,98236.78
2023-01-17T10:32:03.124Z,98227.28
2023-01-17T10:35:33.383Z,98220.09
2023-01-17T10:38:38.920Z,98210.22
2023-01-17T10:41:46.444Z,98198.41
2023-01-17T10:45:08.187Z,98199.84
2023-01-17T10:48:18.787Z,98191.88
2023-01-17T10:51:31.628Z,98184.53
2023-01-17T10:54:53.073Z,98196.81
2023-01-17T10:57:58.132Z,98177.78
2023-01-17T11:01:07.954Z,98170.41
2023-01-17T11:04:23.241Z,98164.59
2023-01-17T11:07:28.656Z,98151.72
2023-01-17T11:10:54.428Z,98146.59
2023-01-17T11:14:01.041Z,98127.09
2023-01-17T11:17:07.138Z,98116.94
2023-01-17T11:20:35.391Z,98112.88
2023-01-17T11:23:42.331Z,98113.34
2023-01-17T11:26:48.145Z,98100.09
2023-01-17T11:30:26.290Z,98108.84
2023-01-17T11:33:45.406Z,98103.50
2023-01-17T11:36:50.265Z,98090.19
2023-01-17T11:40:07.786Z,98105.16
2023-01-17T11:43:18.917Z,98107.34
2023-01-17T11:46:22.133Z,98109.75
2023-01-17T11:49:26.204Z,98106.31
2023-01-17T11:52:33.832Z,98094.47
2023-01-17T11:55:37.047Z,98082.38
2023-01-17T11:58:42.644Z,98084.34
2023-01-17T12:01:48.530Z,98102.00
2023-01-17T12:05:15.580Z,98109.81
2023-01-17T12:08:33.416Z,98123.97
2023-01-17T12:12:29.504Z,98118.41
2023-01-17T12:15:52.148Z,98109.59
2023-01-17T12:19:26.291Z,98099.91
2023-01-17T12:23:03.091Z,98112.63
2023-01-17T12:26:26.446Z,98112.38
2023-01-17T12:29:44.077Z,98108.31
2023-01-17T12:33:19.336Z,98103.69
2023-01-17T12:36:22.063Z,98102.16
2023-01-17T12:39:34.596Z,98110.06
2023-01-17T12:42:41.592Z,98102.97
2023-01-17T12:45:47.643Z,98089.81
2023-01-17T12:48:54.633Z,98097.84
2023-01-17T12:52:21.654Z,98104.00
2023-01-17T12:55:36.738Z,98104.53
2023-01-17T12:58:47.493Z,98101.97
2023-01-17T13:01:57.958Z,98084.28
2023-01-17T13:05:13.157Z,98078.13
2023-01-17T13:08:41.469Z,98071.91
2023-01-17T13:11:52.240Z,98087.69
2023-01-17T13:14:55.756Z,98092.91
2023-01-17T13:18:22.779Z,98096.50
2023-01-17T13:21:31.529Z,98098.94
2023-01-17T13:25:05.677Z,98100.59
2023-01-17T13:28:36.120Z,98105.78
2023-01-17T13:31:48.486Z,98105.84
2023-01-17T13:35:13.127Z,98114.56
2023-01-17T13:38:26.196Z,98116.91
2023-01-17T13:41:48.580Z,98108.69
2023-01-17T13:44:51.983Z,98105.97
2023-01-17T13:48:12.537Z,98099.28
2023-01-17T13:51:15.593Z,98089.88
2023-01-17T13:54:32.076Z,98084.75
2023-01-17T13:57:43.790Z,98070.59
2023-01-17T14:00:46.786Z,98067.88
2023-01-17T14:03:52.601Z,98042.28
2023-01-17T14:06:58.091Z,98039.56
2023-01-17T14:10:01.188Z,98017.16
2023-01-17T14:13:07.055Z,98008.09
2023-01-17T14:16:28.125Z,97992.78
2023-01-17T14:19:37.335Z,97974.72
2023-01-17T14:22:50.652Z,97969.59
2023-01-17T14:25:54.045Z,97963.28
2023-01-17T14:28:58.880Z,97955.03
2023-01-17T14:32:05.750Z,97963.28
2023-01-17T14:35:31.811Z,97953.09
2023-01-17T14:38:42.951Z,97943.66
2023-01-17T14:41:46.043Z,97940.53
2023-01-17T14:44:50.949Z,97931.06
2023-01-17T14:47:54.077Z,97923.19
2023-01-17T14:51:00.268Z,97923.19
2023-01-17T14:54:14.790Z,97925.59
2023-01-17T14:57:29.605Z,97919.31
2023-01-17T15:00:38.482Z,97910.28
2023-01-17T15:03:46.537Z,97907.09
2023-01-17T15:06:49.845Z,97905.13
2023-01-17T15:09:52.588Z,97897.66
2023-01-17T15:12:57.746Z,97891.38
2023-01-17T15:16:06.296Z,97882.69
2023-01-17T15:19:15.125Z,97873.28
2023-01-17T15:22:19.448Z,97874.50
2023-01-17T15:25:22.652Z,97864.28
2023-01-17T15:28:25.706Z,97876.91
2023-01-17T15:31:45.868Z,97876.91
2023-01-17T15:34:50.635Z,97875.31
2023-01-17T15:37:55.117Z,97883.13
2023-01-17T15:41:11.893Z,97881.56
2023-01-17T15:44:47.665Z,97890.94
2023-01-17T15:47:51.129Z,97893.28
2023-01-17T15:51:00.113Z,97897.22
2023-01-17T15:54:30.840Z,97900.34
2023-01-17T15:57:37.075Z,97897.63
2023-01-17T16:00:42.166Z,97895.25
2023-01-17T16:03:55.579Z,97900.78
2023-01-17T16:07:09.841Z,97892.97
2023-01-17T16:10:18.967Z,97892.22
2023-01-17T16:13:22.107Z,97871.03
2023-01-17T16:16:26.008Z,97880.91
2023-01-17T16:19:28.973Z,97881.31
2023-01-17T16:22:32.113Z,97880.97
2023-01-17T16:25:35.009Z,97886.88
2023-01-17T16:28:39.209Z,97890.84
2023-01-17T16:31:42.405Z,97884.97
2023-01-17T16:34:45.940Z,97883.75
2023-01-17T16:37:54.004Z,97872.78
2023-01-17T16:40:57.206Z,97872.38
2023-01-17T16:44:02.919Z,97872.38
2023-01-17T16:47:05.907Z,97873.19
2023-01-17T16:50:10.856Z,97878.66
2023-01-17T16:53:15.948Z,97880.25
2023-01-17T16:56:19.936Z,97879.47
2023-01-17T16:59:23.183Z,97872.78
2023-01-17T17:02:25.917Z,97873.53
2023-01-17T17:05:31.107Z,97877.50
2023-01-17T17:08:35.708Z,97883.41
2023-01-17T17:11:38.721Z,97879.84
2023-01-17T17:14:41.827Z,97881.84
2023-01-17T17:17:44.924Z,97890.09
2023-01-17T17:20:49.699Z,97885.00
2023-01-17T17:23:57.117Z,97889.69
2023-01-17T17:27:00.755Z,97892.47
2023-01-17T17:30:04.901Z,97880.31
2023-01-17T17:33:07.963Z,97881.87
2023-01-17T17:36:12.007Z,97879.12
2023-01-17T17:39:17.466Z,97874.00
2023-01-17T17:42:21.069Z,97888.94
2023-01-17T17:45:24.049Z,97888.19
2023-01-17T17:48:27.997Z,97887.75
2023-01-17T17:51:34.005Z,97886.22
2023-01-17T17:54:37.298Z,97883.84
2023-01-17T17:57:40.966Z,97876.00
2023-01-17T18:00:45.177Z,97872.50
2023-01-17T18:03:49.060Z,97859.16
2023-01-17T18:06:55.517Z,97847.38
2023-01-17T18:09:59.480Z,97820.28
2023-01-17T18:13:03.001Z,97803.00
2023-01-17T18:16:17.406Z,97786.56
2023-01-17T18:19:23.583Z,97772.75
2023-01-17T18:22:27.730Z,97753.53
2023-01-17T18:25:31.347Z,97757.47
2023-01-17T18:28:35.506Z,97744.56
2023-01-17T18:31:38.785Z,97734.78
2023-01-17T18:34:43.391Z,97718.25
2023-01-17T18:37:47.590Z,97715.53
2023-01-17T18:40:51.753Z,97707.63
2023-01-17T18:43:58.207Z,97706.03
2023-01-17T18:47:04.879Z,97695.41
2023-01-17T18:50:09.213Z,97688.00
2023-01-17T18:53:13.115Z,97683.28
2023-01-17T18:56:19.586Z,97681.81
2023-01-17T18:59:23.690Z,97688.53
2023-01-17T19:02:27.188Z,97680.72
2023-01-17T19:05:31.305Z,97684.66
2023-01-17T19:08:36.152Z,97681.16
2023-01-17T19:11:40.104Z,97680.41
2023-01-17T19:14:43.726Z,97669.41
2023-01-17T19:17:48.056Z,97672.16
2023-01-17T19:20:54.027Z,97667.84
2023-01-17T19:23:59.912Z,97658.88
2023-01-17T19:27:07.759Z,97666.69
2023-01-17T19:30:12.783Z,97651.44
2023-01-17T19:33:18.307Z,97629.50
2023-01-17T19:36:25.290Z,97629.50
2023-01-17T19:39:31.173Z,97616.59
2023-01-17T19:42:35.179Z,97598.56
2023-01-17T19:45:39.305Z,97575.06
2023-01-17T19:48:43.845Z,97573.12
2023-01-17T19:51:47.324Z,97567.66
2023-01-17T19:54:51.256Z,97566.09
2023-01-17T19:57:55.178Z,97567.66
2023-01-17T20:01:11.266Z,97568.41
2023-01-17T20:04:19.657Z,97565.28
2023-01-17T20:07:23.526Z,97562.16
2023-01-17T20:10:28.174Z,97561.37
2023-01-17T20:13:32.673Z,97557.06
2023-01-17T20:16:41.773Z,97549.63
2023-01-17T20:19:46.606Z,97543.75
2023-01-17T20:22:50.480Z,97544.91
2023-01-17T20:26:02.241Z,97531.59
2023-01-17T20:29:11.377Z,97529.25
2023-01-17T20:32:14.605Z,97518.28
2023-01-17T20:35:18.478Z,97508.91
2023-01-17T20:38:21.768Z,97504.97
2023-01-17T20:41:30.394Z,97510.47
2023-01-17T20:44:34.777Z,97505.78
2023-01-17T20:47:38.021Z,97501.47
2023-01-17T20:50:41.366Z,97493.25
2023-01-17T20:53:45.999Z,97472.13
2023-01-17T20:56:49.456Z,97452.19
2023-01-17T20:59:53.548Z,97440.06
2023-01-17T21:02:57.631Z,97433.81
2023-01-17T21:06:21.038Z,97415.44
2023-01-17T21:09:24.722Z,97406.44
2023-01-17T21:12:28.377Z,97393.94
2023-01-17T21:15:31.048Z,97368.09
2023-01-17T21:18:34.841Z,97368.88
2023-01-17T21:21:38.006Z,97378.69
2023-01-17T21:24:41.602Z,97379.03
2023-01-17T21:27:45.819Z,97375.91
2023-01-17T21:30:51.822Z,97375.12
2023-01-17T21:34:00.040Z,97368.09
2023-01-17T21:37:03.219Z,97368.84
2023-01-17T21:40:06.292Z,97372.72
2023-01-17T21:43:10.151Z,97372.66
2023-01-17T21:46:12.985Z,97358.59
2023-01-17T21:49:17.398Z,97347.69
2023-01-17T21:52:20.113Z,97345.75
2023-01-17T21:55:41.897Z,97337.12
2023-01-17T21:58:45.031Z,97344.53
2023-01-17T22:01:48.243Z,97324.94
2023-01-17T22:04:51.646Z,97327.28
2023-01-17T22:08:12.904Z,97337.44
2023-01-17T22:11:19.075Z,97334.28
2023-01-17T22:14:21.800Z,97331.53
2023-01-17T22:17:25.075Z,97330.66
2023-01-17T22:20:27.947Z,97330.63
2023-01-17T22:23:31.135Z,97332.53
2023-01-17T22:26:33.928Z,97331.72
2023-01-17T22:29:38.148Z,97336.31
2023-01-17T22:32:41.313Z,97346.47
2023-01-17T22:35:44.391Z,97341.06
2023-01-17T22:38:47.470Z,97350.47
2023-01-17T22:41:50.485Z,97350.06
2023-01-17T22:44:53.135Z,97349.56
2023-01-17T22:47:56.334Z,97348.81
2023-01-17T22:51:02.167Z,97346.44
2023-01-17T22:54:05.629Z,97361.00
2023-01-17T22:57:08.606Z,97366.16
2023-01-17T23:00:14.771Z,97379.47
2023-01-17T23:03:17.675Z,97372.72
2023-01-17T23:06:27.457Z,97364.50
2023-01-17T23:09:30.259Z,97358.69
2023-01-17T23:12:33.408Z,97353.50
2023-01-17T23:15:57.510Z,97353.41
2023-01-17T23:19:19.387Z,97349.84
2023-01-17T23:22:26.995Z,97358.03
2023-01-17T23:25:30.235Z,97374.22
2023-01-17T23:28:33.041Z,97366.88
2023-01-17T23:31:36.892Z,97370.00
2023-01-17T23:34:39.574Z,97372.69
2023-01-17T23:38:01.476Z,97366.03
2023-01-17T23:41:27.371Z,97355.78
2023-01-17T23:44:32.017Z,97371.03
2023-01-17T23:47:34.714Z,97372.72
2023-01-17T23:50:44.329Z,97359.03
2023-01-17T23:53:47.266Z,97356.69
2023-01-17T23:56:50.300Z,97359.03
2023-01-17T23:59:52.998Z,97348.16
